sensor_id;sensor_type;location;lat;lon;timestamp;temperature;humidity
24148;DHT22;12309;51.450;-2.624;2023-07-08T00:00:16;21.80;99.90
24148;DHT22;12309;51.450;-2.624;2023-07-08T00:02:42;21.80;99.90
24148;DHT22;12309;51.450;-2.624;2023-07-08T00:05:09;21.80;99.90
24148;DHT22;12309;51.450;-2.624;2023-07-08T00:07:36;21.80;1.00
24148;DHT22;12309;51.450;-2.624;2023-07-08T00:10:08;21.70;1.00
24148;DHT22;12309;51.450;-2.624;2023-07-08T00:12:35;21.70;1.00
24148;DHT22;12309;51.450;-2.624;2023-07-08T00:15:01;21.70;1.00
24148;DHT22;12309;51.450;-2.624;2023-07-08T00:17:26;21.70;1.00
24148;DHT22;12309;51.450;-2.624;2023-07-08T00:19:52;21.70;1.00
24148;DHT22;12309;51.450;-2.624;2023-07-08T00:22:20;21.70;1.00
24148;DHT22;12309;51.450;-2.624;2023-07-08T00:24:45;21.70;1.00
24148;DHT22;12309;51.450;-2.624;2023-07-08T00:27:12;21.60;50.90
24148;DHT22;12309;51.450;-2.624;2023-07-08T00:29:41;21.70;73.50
24148;DHT22;12309;51.450;-2.624;2023-07-08T00:32:15;21.60;1.00
24148;DHT22;12309;51.450;-2.624;2023-07-08T00:34:41;21.70;1.00
24148;DHT22;12309;51.450;-2.624;2023-07-08T00:37:13;21.60;1.00
24148;DHT22;12309;51.450;-2.624;2023-07-08T00:39:39;21.70;1.00
24148;DHT22;12309;51.450;-2.624;2023-07-08T00:42:16;21.60;99.90
24148;DHT22;12309;51.450;-2.624;2023-07-08T00:44:43;21.60;1.00
24148;DHT22;12309;51.450;-2.624;2023-07-08T00:47:11;21.40;97.30
24148;DHT22;12309;51.450;-2.624;2023-07-08T00:49:58;21.40;1.00
24148;DHT22;12309;51.450;-2.624;2023-07-08T00:52:29;21.30;1.00
24148;DHT22;12309;51.450;-2.624;2023-07-08T00:55:01;21.20;1.00
24148;DHT22;12309;51.450;-2.624;2023-07-08T00:57:35;21.10;1.00
24148;DHT22;12309;51.450;-2.624;2023-07-08T01:00:12;21.10;1.00
24148;DHT22;12309;51.450;-2.624;2023-07-08T01:02:50;21.10;1.00
24148;DHT22;12309;51.450;-2.624;2023-07-08T01:05:25;21.00;1.00
24148;DHT22;12309;51.450;-2.624;2023-07-08T01:07:57;21.00;1.00
24148;DHT22;12309;51.450;-2.624;2023-07-08T01:10:37;20.90;1.00
24148;DHT22;12309;51.450;-2.624;2023-07-08T01:13:05;20.90;1.00
24148;DHT22;12309;51.450;-2.624;2023-07-08T01:15:41;20.90;1.00
24148;DHT22;12309;51.450;-2.624;2023-07-08T01:18:09;20.90;1.00
24148;DHT22;12309;51.450;-2.624;2023-07-08T01:20:37;20.90;1.00
24148;DHT22;12309;51.450;-2.624;2023-07-08T01:23:03;20.90;1.00
24148;DHT22;12309;51.450;-2.624;2023-07-08T01:25:30;21.00;1.00
24148;DHT22;12309;51.450;-2.624;2023-07-08T01:27:56;21.10;1.00
24148;DHT22;12309;51.450;-2.624;2023-07-08T01:30:25;21.10;1.00
24148;DHT22;12309;51.450;-2.624;2023-07-08T01:32:55;21.10;1.00
24148;DHT22;12309;51.450;-2.624;2023-07-08T01:35:22;21.10;1.00
24148;DHT22;12309;51.450;-2.624;2023-07-08T01:37:57;20.90;99.90
24148;DHT22;12309;51.450;-2.624;2023-07-08T01:42:55;20.90;99.90
24148;DHT22;12309;51.450;-2.624;2023-07-08T01:45:23;20.90;1.00
24148;DHT22;12309;51.450;-2.624;2023-07-08T01:47:56;20.90;99.90
24148;DHT22;12309;51.450;-2.624;2023-07-08T01:50:24;20.90;99.90
24148;DHT22;12309;51.450;-2.624;2023-07-08T01:52:51;21.10;1.00
24148;DHT22;12309;51.450;-2.624;2023-07-08T01:55:22;20.90;1.00
24148;DHT22;12309;51.450;-2.624;2023-07-08T01:57:51;20.80;1.00
24148;DHT22;12309;51.450;-2.624;2023-07-08T02:00:17;20.90;1.00
24148;DHT22;12309;51.450;-2.624;2023-07-08T02:02:42;20.90;1.00
24148;DHT22;12309;51.450;-2.624;2023-07-08T02:05:08;20.90;1.00
24148;DHT22;12309;51.450;-2.624;2023-07-08T02:07:33;20.90;1.00
24148;DHT22;12309;51.450;-2.624;2023-07-08T02:09:59;20.90;1.00
24148;DHT22;12309;51.450;-2.624;2023-07-08T02:12:25;21.00;1.00
24148;DHT22;12309;51.450;-2.624;2023-07-08T02:14:50;21.00;1.00
24148;DHT22;12309;51.450;-2.624;2023-07-08T02:17:16;20.90;1.00
24148;DHT22;12309;51.450;-2.624;2023-07-08T02:19:43;21.00;1.00
24148;DHT22;12309;51.450;-2.624;2023-07-08T02:22:08;21.00;1.00
24148;DHT22;12309;51.450;-2.624;2023-07-08T02:24:34;21.10;1.00
24148;DHT22;12309;51.450;-2.624;2023-07-08T02:27:00;21.10;1.00
24148;DHT22;12309;51.450;-2.624;2023-07-08T02:29:25;21.10;1.00
24148;DHT22;12309;51.450;-2.624;2023-07-08T02:31:51;21.20;1.00
24148;DHT22;12309;51.450;-2.624;2023-07-08T02:34:17;21.20;1.00
24148;DHT22;12309;51.450;-2.624;2023-07-08T02:36:43;21.20;1.00
24148;DHT22;12309;51.450;-2.624;2023-07-08T02:39:09;21.20;1.00
24148;DHT22;12309;51.450;-2.624;2023-07-08T02:41:35;21.20;2.20
24148;DHT22;12309;51.450;-2.624;2023-07-08T02:44:01;21.20;99.90
24148;DHT22;12309;51.450;-2.624;2023-07-08T02:46:26;21.10;99.90
24148;DHT22;12309;51.450;-2.624;2023-07-08T02:48:52;21.10;1.00
24148;DHT22;12309;51.450;-2.624;2023-07-08T02:51:17;21.00;1.00
24148;DHT22;12309;51.450;-2.624;2023-07-08T02:53:43;21.00;1.00
24148;DHT22;12309;51.450;-2.624;2023-07-08T02:56:09;21.00;1.00
24148;DHT22;12309;51.450;-2.624;2023-07-08T02:58:34;21.00;99.90
24148;DHT22;12309;51.450;-2.624;2023-07-08T03:01:00;20.90;99.90
24148;DHT22;12309;51.450;-2.624;2023-07-08T03:03:27;20.90;1.00
24148;DHT22;12309;51.450;-2.624;2023-07-08T03:06:02;20.90;1.00
24148;DHT22;12309;51.450;-2.624;2023-07-08T03:08:29;20.90;1.00
24148;DHT22;12309;51.450;-2.624;2023-07-08T03:10:59;20.80;58.50
24148;DHT22;12309;51.450;-2.624;2023-07-08T03:13:27;20.80;99.90
24148;DHT22;12309;51.450;-2.624;2023-07-08T03:15:53;20.80;1.00
24148;DHT22;12309;51.450;-2.624;2023-07-08T03:18:20;20.80;1.00
24148;DHT22;12309;51.450;-2.624;2023-07-08T03:20:48;20.80;1.00
24148;DHT22;12309;51.450;-2.624;2023-07-08T03:23:14;20.70;1.00
24148;DHT22;12309;51.450;-2.624;2023-07-08T03:25:39;20.70;1.00
24148;DHT22;12309;51.450;-2.624;2023-07-08T03:28:05;20.70;99.90
24148;DHT22;12309;51.450;-2.624;2023-07-08T03:30:32;20.70;99.90
24148;DHT22;12309;51.450;-2.624;2023-07-08T03:32:58;20.70;99.90
24148;DHT22;12309;51.450;-2.624;2023-07-08T03:35:24;20.60;1.00
24148;DHT22;12309;51.450;-2.624;2023-07-08T03:37:51;20.60;1.00
24148;DHT22;12309;51.450;-2.624;2023-07-08T03:40:16;20.50;1.00
24148;DHT22;12309;51.450;-2.624;2023-07-08T03:42:42;20.50;1.00
24148;DHT22;12309;51.450;-2.624;2023-07-08T03:45:08;20.50;1.00
24148;DHT22;12309;51.450;-2.624;2023-07-08T03:47:33;20.50;1.00
24148;DHT22;12309;51.450;-2.624;2023-07-08T03:49:59;20.40;1.00
24148;DHT22;12309;51.450;-2.624;2023-07-08T03:52:25;20.50;49.60
24148;DHT22;12309;51.450;-2.624;2023-07-08T03:54:50;20.50;97.50
24148;DHT22;12309;51.450;-2.624;2023-07-08T03:57:16;20.40;99.90
24148;DHT22;12309;51.450;-2.624;2023-07-08T04:02:11;20.50;99.90
24148;DHT22;12309;51.450;-2.624;2023-07-08T04:04:37;20.50;99.90
24148;DHT22;12309;51.450;-2.624;2023-07-08T04:07:04;20.60;99.90
24148;DHT22;12309;51.450;-2.624;2023-07-08T04:09:30;20.60;99.90
24148;DHT22;12309;51.450;-2.624;2023-07-08T04:14:23;20.60;99.90
24148;DHT22;12309;51.450;-2.624;2023-07-08T04:16:55;20.60;99.90
24148;DHT22;12309;51.450;-2.624;2023-07-08T04:19:23;20.60;99.90
24148;DHT22;12309;51.450;-2.624;2023-07-08T04:21:49;20.60;99.90
24148;DHT22;12309;51.450;-2.624;2023-07-08T04:24:16;20.60;99.90
24148;DHT22;12309;51.450;-2.624;2023-07-08T04:26:43;20.60;99.90
24148;DHT22;12309;51.450;-2.624;2023-07-08T04:29:16;20.60;99.90
24148;DHT22;12309;51.450;-2.624;2023-07-08T04:31:42;20.70;99.90
24148;DHT22;12309;51.450;-2.624;2023-07-08T04:34:09;20.70;99.90
24148;DHT22;12309;51.450;-2.624;2023-07-08T04:36:35;20.60;99.90
24148;DHT22;12309;51.450;-2.624;2023-07-08T04:39:04;20.60;99.90
24148;DHT22;12309;51.450;-2.624;2023-07-08T04:41:30;20.70;99.90
24148;DHT22;12309;51.450;-2.624;2023-07-08T04:43:57;20.80;99.90
24148;DHT22;12309;51.450;-2.624;2023-07-08T04:46:35;20.80;99.90
24148;DHT22;12309;51.450;-2.624;2023-07-08T04:49:03;20.80;99.90
24148;DHT22;12309;51.450;-2.624;2023-07-08T04:51:29;20.90;99.90
24148;DHT22;12309;51.450;-2.624;2023-07-08T04:53:55;20.90;99.90
24148;DHT22;12309;51.450;-2.624;2023-07-08T04:56:20;20.90;99.90
24148;DHT22;12309;51.450;-2.624;2023-07-08T04:58:47;20.90;99.90
24148;DHT22;12309;51.450;-2.624;2023-07-08T05:01:12;21.00;99.90
24148;DHT22;12309;51.450;-2.624;2023-07-08T05:03:38;21.00;99.90
24148;DHT22;12309;51.450;-2.624;2023-07-08T05:06:03;21.00;99.90
24148;DHT22;12309;51.450;-2.624;2023-07-08T05:08:29;21.00;99.90
24148;DHT22;12309;51.450;-2.624;2023-07-08T05:10:55;21.00;99.90
24148;DHT22;12309;51.450;-2.624;2023-07-08T05:13:21;21.10;99.90
24148;DHT22;12309;51.450;-2.624;2023-07-08T05:15:48;21.00;99.90
24148;DHT22;12309;51.450;-2.624;2023-07-08T05:18:13;21.00;99.90
24148;DHT22;12309;51.450;-2.624;2023-07-08T05:20:39;21.00;99.90
24148;DHT22;12309;51.450;-2.624;2023-07-08T05:23:05;21.00;99.90
24148;DHT22;12309;51.450;-2.624;2023-07-08T05:25:32;21.00;99.90
24148;DHT22;12309;51.450;-2.624;2023-07-08T05:27:58;21.00;99.90
24148;DHT22;12309;51.450;-2.624;2023-07-08T05:30:23;21.00;99.90
24148;DHT22;12309;51.450;-2.624;2023-07-08T05:32:49;21.00;99.90
24148;DHT22;12309;51.450;-2.624;2023-07-08T05:35:15;20.90;99.90
24148;DHT22;12309;51.450;-2.624;2023-07-08T05:37:40;20.90;99.90
24148;DHT22;12309;51.450;-2.624;2023-07-08T05:40:08;20.90;99.90
24148;DHT22;12309;51.450;-2.624;2023-07-08T05:42:33;21.00;99.90
24148;DHT22;12309;51.450;-2.624;2023-07-08T05:44:59;21.00;99.90
24148;DHT22;12309;51.450;-2.624;2023-07-08T05:47:25;21.00;99.90
24148;DHT22;12309;51.450;-2.624;2023-07-08T05:49:51;21.00;99.90
24148;DHT22;12309;51.450;-2.624;2023-07-08T05:52:17;21.00;99.90
24148;DHT22;12309;51.450;-2.624;2023-07-08T05:57:10;21.00;99.90
24148;DHT22;12309;51.450;-2.624;2023-07-08T05:59:37;21.00;99.90
24148;DHT22;12309;51.450;-2.624;2023-07-08T06:02:05;20.80;99.90
24148;DHT22;12309;51.450;-2.624;2023-07-08T06:04:31;21.00;99.90
24148;DHT22;12309;51.450;-2.624;2023-07-08T06:06:57;20.90;99.90
24148;DHT22;12309;51.450;-2.624;2023-07-08T06:09:22;20.90;99.90
24148;DHT22;12309;51.450;-2.624;2023-07-08T06:11:48;20.90;99.90
24148;DHT22;12309;51.450;-2.624;2023-07-08T06:14:14;20.90;99.90
24148;DHT22;12309;51.450;-2.624;2023-07-08T06:16:39;21.00;99.90
24148;DHT22;12309;51.450;-2.624;2023-07-08T06:19:05;21.10;99.90
24148;DHT22;12309;51.450;-2.624;2023-07-08T06:21:31;21.20;99.90
24148;DHT22;12309;51.450;-2.624;2023-07-08T06:23:57;21.20;99.90
24148;DHT22;12309;51.450;-2.624;2023-07-08T06:26:22;21.30;99.90
24148;DHT22;12309;51.450;-2.624;2023-07-08T06:31:15;21.20;99.90
24148;DHT22;12309;51.450;-2.624;2023-07-08T06:33:41;21.00;99.90
24148;DHT22;12309;51.450;-2.624;2023-07-08T06:36:07;21.20;99.90
24148;DHT22;12309;51.450;-2.624;2023-07-08T06:38:33;21.00;99.90
24148;DHT22;12309;51.450;-2.624;2023-07-08T06:40:58;20.90;99.90
24148;DHT22;12309;51.450;-2.624;2023-07-08T06:43:24;20.90;99.90
24148;DHT22;12309;51.450;-2.624;2023-07-08T06:45:50;20.90;99.90
24148;DHT22;12309;51.450;-2.624;2023-07-08T06:48:15;20.70;99.90
24148;DHT22;12309;51.450;-2.624;2023-07-08T06:50:47;20.80;99.90
24148;DHT22;12309;51.450;-2.624;2023-07-08T06:53:14;20.80;99.90
24148;DHT22;12309;51.450;-2.624;2023-07-08T06:55:40;20.70;99.90
24148;DHT22;12309;51.450;-2.624;2023-07-08T06:58:05;20.80;99.90
24148;DHT22;12309;51.450;-2.624;2023-07-08T07:00:31;20.70;99.90
24148;DHT22;12309;51.450;-2.624;2023-07-08T07:02:57;21.00;99.90
24148;DHT22;12309;51.450;-2.624;2023-07-08T07:05:22;20.80;99.90
24148;DHT22;12309;51.450;-2.624;2023-07-08T07:07:48;20.70;99.90
24148;DHT22;12309;51.450;-2.624;2023-07-08T07:10:14;20.80;99.90
24148;DHT22;12309;51.450;-2.624;2023-07-08T07:12:39;20.80;99.90
24148;DHT22;12309;51.450;-2.624;2023-07-08T07:15:05;20.70;99.90
24148;DHT22;12309;51.450;-2.624;2023-07-08T07:17:31;20.70;99.90
24148;DHT22;12309;51.450;-2.624;2023-07-08T07:19:57;20.70;99.90
24148;DHT22;12309;51.450;-2.624;2023-07-08T07:22:23;20.80;99.90
24148;DHT22;12309;51.450;-2.624;2023-07-08T07:24:49;20.80;99.90
24148;DHT22;12309;51.450;-2.624;2023-07-08T07:27:15;20.80;99.90
24148;DHT22;12309;51.450;-2.624;2023-07-08T07:29:46;20.80;99.90
24148;DHT22;12309;51.450;-2.624;2023-07-08T07:32:13;20.70;99.90
24148;DHT22;12309;51.450;-2.624;2023-07-08T07:34:39;20.70;99.90
24148;DHT22;12309;51.450;-2.624;2023-07-08T07:37:06;20.70;99.90
24148;DHT22;12309;51.450;-2.624;2023-07-08T07:39:32;20.70;99.90
24148;DHT22;12309;51.450;-2.624;2023-07-08T07:41:57;20.70;99.90
24148;DHT22;12309;51.450;-2.624;2023-07-08T07:44:23;20.60;99.90
24148;DHT22;12309;51.450;-2.624;2023-07-08T07:46:51;20.60;99.90
24148;DHT22;12309;51.450;-2.624;2023-07-08T07:49:17;20.60;99.90
24148;DHT22;12309;51.450;-2.624;2023-07-08T07:54:09;20.60;99.90
24148;DHT22;12309;51.450;-2.624;2023-07-08T07:56:35;20.60;99.90
24148;DHT22;12309;51.450;-2.624;2023-07-08T07:59:01;20.50;99.90
24148;DHT22;12309;51.450;-2.624;2023-07-08T08:01:26;20.40;99.90
24148;DHT22;12309;51.450;-2.624;2023-07-08T08:03:52;20.40;99.90
24148;DHT22;12309;51.450;-2.624;2023-07-08T08:06:18;20.40;99.90
24148;DHT22;12309;51.450;-2.624;2023-07-08T08:08:44;20.40;99.90
24148;DHT22;12309;51.450;-2.624;2023-07-08T08:11:10;20.50;99.90
24148;DHT22;12309;51.450;-2.624;2023-07-08T08:13:36;20.60;99.90
24148;DHT22;12309;51.450;-2.624;2023-07-08T08:16:02;20.40;99.90
24148;DHT22;12309;51.450;-2.624;2023-07-08T08:18:28;20.40;99.90
24148;DHT22;12309;51.450;-2.624;2023-07-08T08:23:20;20.30;99.90
24148;DHT22;12309;51.450;-2.624;2023-07-08T08:25:45;20.30;99.90
24148;DHT22;12309;51.450;-2.624;2023-07-08T08:28:11;20.30;99.90
24148;DHT22;12309;51.450;-2.624;2023-07-08T08:30:37;20.30;99.90
24148;DHT22;12309;51.450;-2.624;2023-07-08T08:33:02;20.30;99.90
24148;DHT22;12309;51.450;-2.624;2023-07-08T08:35:28;20.40;99.90
24148;DHT22;12309;51.450;-2.624;2023-07-08T08:37:54;20.40;99.90
24148;DHT22;12309;51.450;-2.624;2023-07-08T08:40:20;20.40;99.90
24148;DHT22;12309;51.450;-2.624;2023-07-08T08:43:39;20.50;99.90
24148;DHT22;12309;51.450;-2.624;2023-07-08T08:54:04;20.70;99.90
24148;DHT22;12309;51.450;-2.624;2023-07-08T09:02:39;21.20;99.90
24148;DHT22;12309;51.450;-2.624;2023-07-08T09:05:10;21.30;99.90
24148;DHT22;12309;51.450;-2.624;2023-07-08T09:07:59;21.40;99.90
24148;DHT22;12309;51.450;-2.624;2023-07-08T09:10:39;21.50;99.90
24148;DHT22;12309;51.450;-2.624;2023-07-08T09:13:16;21.50;99.90
24148;DHT22;12309;51.450;-2.624;2023-07-08T09:15:44;21.80;99.90
24148;DHT22;12309;51.450;-2.624;2023-07-08T09:18:20;22.00;99.90
24148;DHT22;12309;51.450;-2.624;2023-07-08T09:20:52;22.00;99.90
24148;DHT22;12309;51.450;-2.624;2023-07-08T09:23:29;22.00;99.90
24148;DHT22;12309;51.450;-2.624;2023-07-08T09:26:24;21.80;99.90
24148;DHT22;12309;51.450;-2.624;2023-07-08T09:28:51;21.80;99.90
24148;DHT22;12309;51.450;-2.624;2023-07-08T09:31:38;22.50;99.90
24148;DHT22;12309;51.450;-2.624;2023-07-08T09:36:39;22.30;99.90
24148;DHT22;12309;51.450;-2.624;2023-07-08T09:39:13;22.30;99.90
24148;DHT22;12309;51.450;-2.624;2023-07-08T09:41:41;22.70;99.90
24148;DHT22;12309;51.450;-2.624;2023-07-08T09:44:18;22.80;99.90
24148;DHT22;12309;51.450;-2.624;2023-07-08T09:46:45;22.60;99.90
24148;DHT22;12309;51.450;-2.624;2023-07-08T09:49:17;22.40;99.90
24148;DHT22;12309;51.450;-2.624;2023-07-08T09:51:44;22.20;99.90
24148;DHT22;12309;51.450;-2.624;2023-07-08T09:54:10;22.20;99.90
24148;DHT22;12309;51.450;-2.624;2023-07-08T09:56:41;22.30;99.90
24148;DHT22;12309;51.450;-2.624;2023-07-08T09:59:12;22.30;99.90
24148;DHT22;12309;51.450;-2.624;2023-07-08T10:01:40;22.20;99.90
24148;DHT22;12309;51.450;-2.624;2023-07-08T10:04:06;22.20;99.90
24148;DHT22;12309;51.450;-2.624;2023-07-08T10:06:33;22.20;99.90
24148;DHT22;12309;51.450;-2.624;2023-07-08T10:09:11;22.20;99.90
24148;DHT22;12309;51.450;-2.624;2023-07-08T10:11:44;22.10;99.90
24148;DHT22;12309;51.450;-2.624;2023-07-08T10:16:52;22.00;99.90
24148;DHT22;12309;51.450;-2.624;2023-07-08T10:19:19;22.00;99.90
24148;DHT22;12309;51.450;-2.624;2023-07-08T10:22:08;22.10;99.90
24148;DHT22;12309;51.450;-2.624;2023-07-08T10:27:39;22.20;99.90
24148;DHT22;12309;51.450;-2.624;2023-07-08T10:35:24;22.50;99.90
24148;DHT22;12309;51.450;-2.624;2023-07-08T10:38:08;22.50;99.90
24148;DHT22;12309;51.450;-2.624;2023-07-08T10:40:47;22.60;99.90
24148;DHT22;12309;51.450;-2.624;2023-07-08T10:48:51;22.40;99.90
24148;DHT22;12309;51.450;-2.624;2023-07-08T10:51:26;22.40;99.90
24148;DHT22;12309;51.450;-2.624;2023-07-08T10:56:53;22.20;99.90
24148;DHT22;12309;51.450;-2.624;2023-07-08T11:07:50;22.90;99.90
24148;DHT22;12309;51.450;-2.624;2023-07-08T11:10:38;23.30;99.90
24148;DHT22;12309;51.450;-2.624;2023-07-08T11:13:11;23.70;99.90
24148;DHT22;12309;51.450;-2.624;2023-07-08T11:15:50;23.90;99.90
24148;DHT22;12309;51.450;-2.624;2023-07-08T11:21:17;23.50;99.90
24148;DHT22;12309;51.450;-2.624;2023-07-08T11:23:50;23.50;99.90
24148;DHT22;12309;51.450;-2.624;2023-07-08T11:29:37;23.80;99.90
24148;DHT22;12309;51.450;-2.624;2023-07-08T11:32:06;24.00;99.90
24148;DHT22;12309;51.450;-2.624;2023-07-08T11:34:34;24.00;99.90
24148;DHT22;12309;51.450;-2.624;2023-07-08T11:37:02;24.10;99.90
24148;DHT22;12309;51.450;-2.624;2023-07-08T11:40:17;23.90;99.90
24148;DHT22;12309;51.450;-2.624;2023-07-08T11:44:55;23.60;99.90
24148;DHT22;12309;51.450;-2.624;2023-07-08T11:47:39;23.60;99.90
24148;DHT22;12309;51.450;-2.624;2023-07-08T11:50:24;23.70;99.90
24148;DHT22;12309;51.450;-2.624;2023-07-08T11:53:07;24.00;99.90
24148;DHT22;12309;51.450;-2.624;2023-07-08T11:58:51;23.40;99.90
24148;DHT22;12309;51.450;-2.624;2023-07-08T12:09:22;22.50;99.90
24148;DHT22;12309;51.450;-2.624;2023-07-08T12:11:53;22.20;99.90
24148;DHT22;12309;51.450;-2.624;2023-07-08T12:16:45;22.50;99.90
24148;DHT22;12309;51.450;-2.624;2023-07-08T12:19:15;22.30;99.90
24148;DHT22;12309;51.450;-2.624;2023-07-08T12:21:41;22.10;99.90
24148;DHT22;12309;51.450;-2.624;2023-07-08T12:24:07;21.80;99.90
24148;DHT22;12309;51.450;-2.624;2023-07-08T12:26:36;21.40;99.90
24148;DHT22;12309;51.450;-2.624;2023-07-08T12:31:28;21.00;99.90
24148;DHT22;12309;51.450;-2.624;2023-07-08T12:33:54;20.70;99.90
24148;DHT22;12309;51.450;-2.624;2023-07-08T12:36:22;20.60;99.90
24148;DHT22;12309;51.450;-2.624;2023-07-08T12:38:51;20.60;99.90
24148;DHT22;12309;51.450;-2.624;2023-07-08T12:41:34;20.50;99.90
24148;DHT22;12309;51.450;-2.624;2023-07-08T12:44:01;20.70;99.90
24148;DHT22;12309;51.450;-2.624;2023-07-08T12:46:28;20.70;99.90
24148;DHT22;12309;51.450;-2.624;2023-07-08T12:48:54;20.80;99.90
24148;DHT22;12309;51.450;-2.624;2023-07-08T12:51:22;20.80;99.90
24148;DHT22;12309;51.450;-2.624;2023-07-08T12:53:49;20.80;99.90
24148;DHT22;12309;51.450;-2.624;2023-07-08T12:56:15;20.80;99.90
24148;DHT22;12309;51.450;-2.624;2023-07-08T12:58:43;20.80;99.90
24148;DHT22;12309;51.450;-2.624;2023-07-08T13:01:16;20.70;99.90
24148;DHT22;12309;51.450;-2.624;2023-07-08T13:03:45;20.60;99.90
24148;DHT22;12309;51.450;-2.624;2023-07-08T13:06:16;20.30;99.90
24148;DHT22;12309;51.450;-2.624;2023-07-08T13:08:42;20.90;99.90
24148;DHT22;12309;51.450;-2.624;2023-07-08T13:11:08;21.10;99.90
24148;DHT22;12309;51.450;-2.624;2023-07-08T13:13:40;21.10;99.90
24148;DHT22;12309;51.450;-2.624;2023-07-08T13:16:09;21.30;99.90
24148;DHT22;12309;51.450;-2.624;2023-07-08T13:18:38;22.00;99.90
24148;DHT22;12309;51.450;-2.624;2023-07-08T13:21:06;23.20;99.90
24148;DHT22;12309;51.450;-2.624;2023-07-08T13:23:34;23.20;99.90
24148;DHT22;12309;51.450;-2.624;2023-07-08T13:26:00;22.80;99.90
24148;DHT22;12309;51.450;-2.624;2023-07-08T13:28:38;22.10;99.90
24148;DHT22;12309;51.450;-2.624;2023-07-08T13:31:18;22.10;99.90
24148;DHT22;12309;51.450;-2.624;2023-07-08T13:33:52;22.10;99.90
24148;DHT22;12309;51.450;-2.624;2023-07-08T13:36:23;22.30;99.90
24148;DHT22;12309;51.450;-2.624;2023-07-08T13:38:49;22.10;99.90
24148;DHT22;12309;51.450;-2.624;2023-07-08T13:41:21;22.30;99.90
24148;DHT22;12309;51.450;-2.624;2023-07-08T13:43:48;22.20;99.90
24148;DHT22;12309;51.450;-2.624;2023-07-08T13:49:01;23.20;99.90
24148;DHT22;12309;51.450;-2.624;2023-07-08T13:51:31;23.50;99.90
24148;DHT22;12309;51.450;-2.624;2023-07-08T13:54:16;24.10;99.90
24148;DHT22;12309;51.450;-2.624;2023-07-08T13:59:21;26.10;99.90
24148;DHT22;12309;51.450;-2.624;2023-07-08T14:01:47;27.00;99.90
24148;DHT22;12309;51.450;-2.624;2023-07-08T14:04:17;27.70;99.90
24148;DHT22;12309;51.450;-2.624;2023-07-08T14:06:43;27.90;99.90
24148;DHT22;12309;51.450;-2.624;2023-07-08T14:09:21;27.70;1.00
24148;DHT22;12309;51.450;-2.624;2023-07-08T14:11:47;26.70;1.00
24148;DHT22;12309;51.450;-2.624;2023-07-08T14:14:14;25.40;99.90
24148;DHT22;12309;51.450;-2.624;2023-07-08T14:16:45;25.80;1.00
24148;DHT22;12309;51.450;-2.624;2023-07-08T14:19:15;26.10;1.00
24148;DHT22;12309;51.450;-2.624;2023-07-08T14:21:42;25.90;1.00
24148;DHT22;12309;51.450;-2.624;2023-07-08T14:24:12;24.50;99.90
24148;DHT22;12309;51.450;-2.624;2023-07-08T14:26:43;23.80;99.90
24148;DHT22;12309;51.450;-2.624;2023-07-08T14:31:35;24.00;99.90
24148;DHT22;12309;51.450;-2.624;2023-07-08T14:34:11;23.40;99.90
24148;DHT22;12309;51.450;-2.624;2023-07-08T14:36:37;23.20;99.90
24148;DHT22;12309;51.450;-2.624;2023-07-08T14:39:15;23.50;99.90
24148;DHT22;12309;51.450;-2.624;2023-07-08T14:41:43;23.00;99.90
24148;DHT22;12309;51.450;-2.624;2023-07-08T14:44:32;22.40;99.90
24148;DHT22;12309;51.450;-2.624;2023-07-08T14:46:59;22.30;99.90
24148;DHT22;12309;51.450;-2.624;2023-07-08T14:49:25;22.70;99.90
24148;DHT22;12309;51.450;-2.624;2023-07-08T14:51:51;22.80;99.90
24148;DHT22;12309;51.450;-2.624;2023-07-08T14:54:20;22.90;99.90
24148;DHT22;12309;51.450;-2.624;2023-07-08T14:56:47;22.70;99.90
24148;DHT22;12309;51.450;-2.624;2023-07-08T14:59:22;22.70;99.90
24148;DHT22;12309;51.450;-2.624;2023-07-08T15:01:49;22.40;99.90
24148;DHT22;12309;51.450;-2.624;2023-07-08T15:04:16;22.40;99.90
24148;DHT22;12309;51.450;-2.624;2023-07-08T15:06:42;21.90;99.90
24148;DHT22;12309;51.450;-2.624;2023-07-08T15:09:09;21.80;99.90
24148;DHT22;12309;51.450;-2.624;2023-07-08T15:11:36;21.60;99.90
24148;DHT22;12309;51.450;-2.624;2023-07-08T15:14:04;21.50;99.90
24148;DHT22;12309;51.450;-2.624;2023-07-08T15:16:30;21.30;99.90
24148;DHT22;12309;51.450;-2.624;2023-07-08T15:18:56;21.30;99.90
24148;DHT22;12309;51.450;-2.624;2023-07-08T15:21:23;21.30;99.90
24148;DHT22;12309;51.450;-2.624;2023-07-08T15:23:49;21.30;99.90
24148;DHT22;12309;51.450;-2.624;2023-07-08T15:26:15;21.20;99.90
24148;DHT22;12309;51.450;-2.624;2023-07-08T15:28:49;21.00;99.90
24148;DHT22;12309;51.450;-2.624;2023-07-08T15:31:23;21.00;99.90
24148;DHT22;12309;51.450;-2.624;2023-07-08T15:33:53;21.00;99.90
24148;DHT22;12309;51.450;-2.624;2023-07-08T15:36:19;21.20;99.90
24148;DHT22;12309;51.450;-2.624;2023-07-08T15:38:44;21.30;99.90
24148;DHT22;12309;51.450;-2.624;2023-07-08T15:41:20;21.60;99.90
24148;DHT22;12309;51.450;-2.624;2023-07-08T15:43:47;21.60;99.90
24148;DHT22;12309;51.450;-2.624;2023-07-08T15:46:13;21.30;99.90
24148;DHT22;12309;51.450;-2.624;2023-07-08T15:48:39;21.10;99.90
24148;DHT22;12309;51.450;-2.624;2023-07-08T15:51:04;21.20;99.90
24148;DHT22;12309;51.450;-2.624;2023-07-08T15:53:30;21.20;99.90
24148;DHT22;12309;51.450;-2.624;2023-07-08T15:55:55;21.00;99.90
24148;DHT22;12309;51.450;-2.624;2023-07-08T15:58:28;21.00;99.90
24148;DHT22;12309;51.450;-2.624;2023-07-08T16:00:55;20.90;99.90
24148;DHT22;12309;51.450;-2.624;2023-07-08T16:03:28;21.10;99.90
24148;DHT22;12309;51.450;-2.624;2023-07-08T16:05:54;21.20;99.90
24148;DHT22;12309;51.450;-2.624;2023-07-08T16:08:21;21.10;99.90
24148;DHT22;12309;51.450;-2.624;2023-07-08T16:13:40;20.90;99.90
24148;DHT22;12309;51.450;-2.624;2023-07-08T16:16:06;20.70;99.90
24148;DHT22;12309;51.450;-2.624;2023-07-08T16:18:32;20.60;99.90
24148;DHT22;12309;51.450;-2.624;2023-07-08T16:20:58;20.60;99.90
24148;DHT22;12309;51.450;-2.624;2023-07-08T16:23:23;20.50;99.90
24148;DHT22;12309;51.450;-2.624;2023-07-08T16:25:51;20.50;99.90
24148;DHT22;12309;51.450;-2.624;2023-07-08T16:28:36;20.40;99.90
24148;DHT22;12309;51.450;-2.624;2023-07-08T16:31:13;20.50;99.90
24148;DHT22;12309;51.450;-2.624;2023-07-08T16:33:39;20.80;99.90
24148;DHT22;12309;51.450;-2.624;2023-07-08T16:36:09;20.50;99.90
24148;DHT22;12309;51.450;-2.624;2023-07-08T16:38:36;20.40;99.90
24148;DHT22;12309;51.450;-2.624;2023-07-08T16:41:02;20.30;99.90
24148;DHT22;12309;51.450;-2.624;2023-07-08T16:43:31;20.30;99.90
24148;DHT22;12309;51.450;-2.624;2023-07-08T16:45:58;20.20;99.90
24148;DHT22;12309;51.450;-2.624;2023-07-08T16:48:24;20.20;99.90
24148;DHT22;12309;51.450;-2.624;2023-07-08T16:50:50;20.30;99.90
24148;DHT22;12309;51.450;-2.624;2023-07-08T16:53:15;20.30;99.90
24148;DHT22;12309;51.450;-2.624;2023-07-08T16:55:41;20.20;99.90
24148;DHT22;12309;51.450;-2.624;2023-07-08T16:58:11;20.20;99.90
24148;DHT22;12309;51.450;-2.624;2023-07-08T17:00:40;20.30;99.90
24148;DHT22;12309;51.450;-2.624;2023-07-08T17:03:11;20.20;99.90
24148;DHT22;12309;51.450;-2.624;2023-07-08T17:05:37;20.20;99.90